TimeCST,TemperatureF,Dew PointF,Humidity,Sea Level PressureIn,VisibilityMPH,Wind Direction,Wind SpeedMPH,Gust SpeedMPH,PrecipitationIn,Events,Conditions,WindDirDegrees,DateUTC
12:56 AM,28.9,24.1,82,30.33,10.0,North,18.4,28.8,N/A,,Overcast,350,2012-02-07 06:56:00
1:56 AM,30.0,25.0,82,30.33,10.0,North,17.3,-,N/A,,Overcast,360,2012-02-07 07:56:00
2:37 AM,30.2,24.8,80,30.30,10.0,North,21.9,26.5,N/A,,Overcast,360,2012-02-07 08:37:00
2:56 AM,30.0,25.0,82,30.35,10.0,North,20.7,25.3,N/A,,Overcast,350,2012-02-07 08:56:00
3:56 AM,28.9,24.1,82,30.36,10.0,North,15.0,24.2,N/A,,Overcast,360,2012-02-07 09:56:00
4:56 AM,28.0,23.0,81,30.38,10.0,North,17.3,-,N/A,,Overcast,360,2012-02-07 10:56:00
5:56 AM,28.0,23.0,81,30.41,10.0,North,15.0,-,N/A,,Overcast,350,2012-02-07 11:56:00
6:56 AM,28.0,23.0,81,30.43,10.0,North,15.0,-,N/A,,Overcast,360,2012-02-07 12:56:00
7:56 AM,28.0,23.0,81,30.44,10.0,North,18.4,-,N/A,,Overcast,360,2012-02-07 13:56:00
8:56 AM,27.0,21.9,81,30.47,10.0,North,19.6,-,N/A,,Overcast,360,2012-02-07 14:56:00
9:56 AM,26.1,21.0,81,30.48,10.0,North,18.4,-,N/A,,Overcast,350,2012-02-07 15:56:00
10:56 AM,26.1,19.9,78,30.50,10.0,North,15.0,-,N/A,,Overcast,350,2012-02-07 16:56:00
11:56 AM,24.1,19.0,81,30.53,10.0,NNW,16.1,-,N/A,,Overcast,340,2012-02-07 17:56:00
12:52 PM,23.0,17.6,80,30.47,2.0,NNW,16.1,-,0.00,Snow,Light Snow,340,2012-02-07 18:52:00
12:56 PM,23.0,18.0,81,30.53,2.0,NNW,19.6,-,0.00,Snow,Light Snow,340,2012-02-07 18:56:00
1:49 PM,23.0,17.6,80,30.46,5.0,NNW,16.1,-,0.01,Snow,Light Snow,340,2012-02-07 19:49:00
1:56 PM,23.0,18.0,81,30.53,6.0,NNW,17.3,-,0.01,Snow,Light Snow,340,2012-02-07 19:56:00
2:42 PM,23.0,17.6,80,30.46,2.5,NNW,13.8,-,0.00,Snow,Light Snow,340,2012-02-07 20:42:00
2:56 PM,23.0,18.0,81,30.53,3.0,NNW,16.1,-,0.00,Snow,Light Snow,340,2012-02-07 20:56:00
3:56 PM,23.0,18.0,81,30.54,10.0,North,13.8,-,0.00,,Overcast,350,2012-02-07 21:56:00
4:56 PM,23.0,17.1,78,30.54,10.0,North,11.5,20.7,N/A,,Overcast,350,2012-02-07 22:56:00
5:42 PM,23.0,17.6,80,30.47,10.0,NNW,12.7,-,N/A,,Overcast,340,2012-02-07 23:42:00
5:56 PM,23.0,17.1,78,30.54,10.0,NNW,13.8,-,N/A,,Overcast,340,2012-02-07 23:56:00
6:56 PM,23.0,16.0,74,30.56,10.0,NNW,15.0,-,N/A,,Overcast,340,2012-02-08 00:56:00
7:56 PM,21.9,15.1,75,30.57,10.0,NNW,15.0,-,N/A,,Overcast,330,2012-02-08 01:56:00
8:18 PM,21.2,15.8,80,30.50,10.0,NNW,10.4,-,N/A,,Overcast,340,2012-02-08 02:18:00
8:34 PM,21.2,15.8,80,30.50,10.0,NNW,10.4,-,N/A,,Overcast,340,2012-02-08 02:34:00
8:56 PM,21.9,15.1,75,30.57,10.0,NW,6.9,-,N/A,,Overcast,320,2012-02-08 02:56:00
9:56 PM,21.9,15.1,75,30.58,10.0,NW,9.2,-,N/A,,Overcast,310,2012-02-08 03:56:00
10:56 PM,21.9,15.1,75,30.58,10.0,NW,8.1,-,N/A,,Overcast,320,2012-02-08 04:56:00
11:56 PM,21.9,14.0,72,30.58,10.0,NW,9.2,-,N/A,,Overcast,320,2012-02-08 05:56:00